sensor_id;sensor_type;location;lat;lon;timestamp;temperature;humidity
51021;DHT22;38907;45.562;8.856;2022-11-20T00:03:05;7.60;99.90
51021;DHT22;38907;45.562;8.856;2022-11-20T00:08:07;7.60;99.90
51021;DHT22;38907;45.562;8.856;2022-11-20T00:13:10;7.70;99.90
51021;DHT22;38907;45.562;8.856;2022-11-20T00:18:13;7.70;99.90
51021;DHT22;38907;45.562;8.856;2022-11-20T00:23:15;7.60;99.90
51021;DHT22;38907;45.562;8.856;2022-11-20T00:28:17;7.60;99.90
51021;DHT22;38907;45.562;8.856;2022-11-20T00:33:20;7.60;99.90
51021;DHT22;38907;45.562;8.856;2022-11-20T00:38:22;7.60;99.90
51021;DHT22;38907;45.562;8.856;2022-11-20T00:43:24;7.50;99.90
51021;DHT22;38907;45.562;8.856;2022-11-20T00:48:28;7.50;99.90
51021;DHT22;38907;45.562;8.856;2022-11-20T00:53:30;7.40;99.90
51021;DHT22;38907;45.562;8.856;2022-11-20T00:58:33;7.40;99.90
51021;DHT22;38907;45.562;8.856;2022-11-20T01:03:37;7.50;99.90
51021;DHT22;38907;45.562;8.856;2022-11-20T01:08:40;7.30;99.90
51021;DHT22;38907;45.562;8.856;2022-11-20T01:13:43;7.30;99.90
51021;DHT22;38907;45.562;8.856;2022-11-20T01:18:48;7.30;99.90
51021;DHT22;38907;45.562;8.856;2022-11-20T01:23:51;7.20;99.90
51021;DHT22;38907;45.562;8.856;2022-11-20T01:28:53;7.20;99.90
51021;DHT22;38907;45.562;8.856;2022-11-20T01:33:58;7.20;99.90
51021;DHT22;38907;45.562;8.856;2022-11-20T01:39:02;7.20;99.90
51021;DHT22;38907;45.562;8.856;2022-11-20T01:44:05;7.20;99.90
51021;DHT22;38907;45.562;8.856;2022-11-20T01:49:13;7.00;99.90
51021;DHT22;38907;45.562;8.856;2022-11-20T01:54:24;7.00;99.90
51021;DHT22;38907;45.562;8.856;2022-11-20T01:59:28;7.10;99.90
51021;DHT22;38907;45.562;8.856;2022-11-20T02:04:32;7.20;99.90
51021;DHT22;38907;45.562;8.856;2022-11-20T02:09:34;6.80;99.90
51021;DHT22;38907;45.562;8.856;2022-11-20T02:14:35;6.70;99.90
51021;DHT22;38907;45.562;8.856;2022-11-20T02:19:40;6.50;99.90
51021;DHT22;38907;45.562;8.856;2022-11-20T02:24:44;6.50;99.90
51021;DHT22;38907;45.562;8.856;2022-11-20T02:29:49;6.70;99.90
51021;DHT22;38907;45.562;8.856;2022-11-20T02:34:52;6.80;99.90
51021;DHT22;38907;45.562;8.856;2022-11-20T02:39:55;7.00;99.90
51021;DHT22;38907;45.562;8.856;2022-11-20T02:44:57;7.00;99.90
51021;DHT22;38907;45.562;8.856;2022-11-20T02:49:59;7.00;99.90
51021;DHT22;38907;45.562;8.856;2022-11-20T02:55:03;7.20;99.90
51021;DHT22;38907;45.562;8.856;2022-11-20T03:00:06;7.20;99.90
51021;DHT22;38907;45.562;8.856;2022-11-20T03:05:08;7.10;99.90
51021;DHT22;38907;45.562;8.856;2022-11-20T03:10:11;6.80;99.90
51021;DHT22;38907;45.562;8.856;2022-11-20T03:15:13;6.90;99.90
51021;DHT22;38907;45.562;8.856;2022-11-20T03:20:15;6.60;99.90
51021;DHT22;38907;45.562;8.856;2022-11-20T03:25:19;6.50;99.90
51021;DHT22;38907;45.562;8.856;2022-11-20T03:30:21;6.50;99.90
51021;DHT22;38907;45.562;8.856;2022-11-20T03:35:23;6.30;99.90
51021;DHT22;38907;45.562;8.856;2022-11-20T03:40:26;6.40;99.90
51021;DHT22;38907;45.562;8.856;2022-11-20T03:45:28;6.50;99.90
51021;DHT22;38907;45.562;8.856;2022-11-20T03:50:30;6.40;99.90
51021;DHT22;38907;45.562;8.856;2022-11-20T03:55:33;6.40;99.90
51021;DHT22;38907;45.562;8.856;2022-11-20T04:00:35;6.50;99.90
51021;DHT22;38907;45.562;8.856;2022-11-20T04:05:37;6.50;99.90
51021;DHT22;38907;45.562;8.856;2022-11-20T04:10:40;6.40;99.90
51021;DHT22;38907;45.562;8.856;2022-11-20T04:15:42;6.40;99.90
51021;DHT22;38907;45.562;8.856;2022-11-20T04:20:44;6.40;99.90
51021;DHT22;38907;45.562;8.856;2022-11-20T04:25:47;6.30;99.90
51021;DHT22;38907;45.562;8.856;2022-11-20T04:30:49;6.30;99.90
51021;DHT22;38907;45.562;8.856;2022-11-20T04:35:51;6.20;99.90
51021;DHT22;38907;45.562;8.856;2022-11-20T04:40:57;6.10;99.90
51021;DHT22;38907;45.562;8.856;2022-11-20T04:46:00;6.20;99.90
51021;DHT22;38907;45.562;8.856;2022-11-20T04:51:03;6.20;99.90
51021;DHT22;38907;45.562;8.856;2022-11-20T04:56:08;6.20;99.90
51021;DHT22;38907;45.562;8.856;2022-11-20T05:01:12;6.00;99.90
51021;DHT22;38907;45.562;8.856;2022-11-20T05:06:17;5.80;99.90
51021;DHT22;38907;45.562;8.856;2022-11-20T05:11:21;6.00;99.90
51021;DHT22;38907;45.562;8.856;2022-11-20T05:16:24;5.80;99.90
51021;DHT22;38907;45.562;8.856;2022-11-20T05:21:26;5.80;99.90
51021;DHT22;38907;45.562;8.856;2022-11-20T05:26:30;5.70;99.90
51021;DHT22;38907;45.562;8.856;2022-11-20T05:31:32;5.70;99.90
51021;DHT22;38907;45.562;8.856;2022-11-20T05:36:33;5.60;99.90
51021;DHT22;38907;45.562;8.856;2022-11-20T05:41:37;5.60;99.90
51021;DHT22;38907;45.562;8.856;2022-11-20T05:46:38;5.30;99.90
51021;DHT22;38907;45.562;8.856;2022-11-20T05:51:40;5.00;99.90
51021;DHT22;38907;45.562;8.856;2022-11-20T05:56:43;5.00;99.90
51021;DHT22;38907;45.562;8.856;2022-11-20T06:01:45;4.80;99.90
51021;DHT22;38907;45.562;8.856;2022-11-20T06:06:47;4.90;99.90
51021;DHT22;38907;45.562;8.856;2022-11-20T06:11:50;4.90;99.90
51021;DHT22;38907;45.562;8.856;2022-11-20T06:16:52;5.00;99.90
51021;DHT22;38907;45.562;8.856;2022-11-20T06:21:54;4.90;99.90
51021;DHT22;38907;45.562;8.856;2022-11-20T06:26:57;4.90;99.90
51021;DHT22;38907;45.562;8.856;2022-11-20T06:31:59;5.00;99.90
51021;DHT22;38907;45.562;8.856;2022-11-20T06:37:01;5.20;99.90
51021;DHT22;38907;45.562;8.856;2022-11-20T06:42:04;4.90;99.90
51021;DHT22;38907;45.562;8.856;2022-11-20T06:47:06;4.80;99.90
51021;DHT22;38907;45.562;8.856;2022-11-20T06:52:08;4.80;99.90
51021;DHT22;38907;45.562;8.856;2022-11-20T06:57:11;4.60;99.90
51021;DHT22;38907;45.562;8.856;2022-11-20T07:02:13;4.80;99.90
51021;DHT22;38907;45.562;8.856;2022-11-20T07:07:15;4.90;99.90
51021;DHT22;38907;45.562;8.856;2022-11-20T07:12:18;5.20;99.90
51021;DHT22;38907;45.562;8.856;2022-11-20T07:17:20;5.20;99.90
51021;DHT22;38907;45.562;8.856;2022-11-20T07:22:22;5.30;99.90
51021;DHT22;38907;45.562;8.856;2022-11-20T07:27:25;5.50;99.90
51021;DHT22;38907;45.562;8.856;2022-11-20T07:32:27;5.80;99.90
51021;DHT22;38907;45.562;8.856;2022-11-20T07:37:29;6.10;99.90
51021;DHT22;38907;45.562;8.856;2022-11-20T07:42:32;6.60;99.90
51021;DHT22;38907;45.562;8.856;2022-11-20T07:47:35;6.80;99.90
51021;DHT22;38907;45.562;8.856;2022-11-20T07:52:37;6.70;99.90
51021;DHT22;38907;45.562;8.856;2022-11-20T07:57:41;6.70;99.90
51021;DHT22;38907;45.562;8.856;2022-11-20T08:02:42;7.00;99.90
51021;DHT22;38907;45.562;8.856;2022-11-20T08:07:44;7.30;99.90
51021;DHT22;38907;45.562;8.856;2022-11-20T08:12:49;7.60;99.90
51021;DHT22;38907;45.562;8.856;2022-11-20T08:18:09;7.80;99.90
51021;DHT22;38907;45.562;8.856;2022-11-20T08:23:12;7.90;99.90
51021;DHT22;38907;45.562;8.856;2022-11-20T08:28:16;8.10;99.90
51021;DHT22;38907;45.562;8.856;2022-11-20T08:33:18;8.30;99.90
51021;DHT22;38907;45.562;8.856;2022-11-20T08:38:20;8.50;99.90
51021;DHT22;38907;45.562;8.856;2022-11-20T08:43:24;8.60;99.90
51021;DHT22;38907;45.562;8.856;2022-11-20T08:48:26;8.80;99.90
51021;DHT22;38907;45.562;8.856;2022-11-20T08:53:32;8.90;99.90
51021;DHT22;38907;45.562;8.856;2022-11-20T08:58:35;9.00;99.90
51021;DHT22;38907;45.562;8.856;2022-11-20T09:03:38;9.10;99.90
51021;DHT22;38907;45.562;8.856;2022-11-20T09:08:41;9.30;99.90
51021;DHT22;38907;45.562;8.856;2022-11-20T09:13:45;9.30;99.90
51021;DHT22;38907;45.562;8.856;2022-11-20T09:18:49;9.30;99.90
51021;DHT22;38907;45.562;8.856;2022-11-20T09:23:51;9.50;99.90
51021;DHT22;38907;45.562;8.856;2022-11-20T09:28:54;9.60;99.90
51021;DHT22;38907;45.562;8.856;2022-11-20T09:33:56;9.70;99.90
51021;DHT22;38907;45.562;8.856;2022-11-20T09:38:58;9.80;99.90
51021;DHT22;38907;45.562;8.856;2022-11-20T09:44:12;10.00;99.90
51021;DHT22;38907;45.562;8.856;2022-11-20T09:49:25;10.10;99.90
51021;DHT22;38907;45.562;8.856;2022-11-20T09:54:33;10.20;99.90
51021;DHT22;38907;45.562;8.856;2022-11-20T09:59:41;10.30;99.90
51021;DHT22;38907;45.562;8.856;2022-11-20T10:04:58;10.20;99.90
51021;DHT22;38907;45.562;8.856;2022-11-20T10:10:01;10.40;99.90
51021;DHT22;38907;45.562;8.856;2022-11-20T10:15:13;10.50;99.90
51021;DHT22;38907;45.562;8.856;2022-11-20T10:20:28;10.50;99.90
51021;DHT22;38907;45.562;8.856;2022-11-20T10:25:37;10.50;99.90
51021;DHT22;38907;45.562;8.856;2022-11-20T10:30:43;10.60;99.90
51021;DHT22;38907;45.562;8.856;2022-11-20T10:35:50;10.80;99.90
51021;DHT22;38907;45.562;8.856;2022-11-20T10:40:57;11.00;99.90
51021;DHT22;38907;45.562;8.856;2022-11-20T10:46:22;11.00;99.90
51021;DHT22;38907;45.562;8.856;2022-11-20T10:51:33;11.00;99.90
51021;DHT22;38907;45.562;8.856;2022-11-20T10:56:41;11.10;99.90
51021;DHT22;38907;45.562;8.856;2022-11-20T11:01:45;11.20;99.90
51021;DHT22;38907;45.562;8.856;2022-11-20T11:06:48;11.20;99.90
51021;DHT22;38907;45.562;8.856;2022-11-20T11:11:50;11.30;99.90
51021;DHT22;38907;45.562;8.856;2022-11-20T11:16:54;11.50;99.90
51021;DHT22;38907;45.562;8.856;2022-11-20T11:21:57;11.50;99.90
51021;DHT22;38907;45.562;8.856;2022-11-20T11:27:00;11.50;99.90
51021;DHT22;38907;45.562;8.856;2022-11-20T11:32:08;11.60;99.90
51021;DHT22;38907;45.562;8.856;2022-11-20T11:37:15;11.70;99.90
51021;DHT22;38907;45.562;8.856;2022-11-20T11:42:19;11.80;99.90
51021;DHT22;38907;45.562;8.856;2022-11-20T11:47:25;11.90;99.90
51021;DHT22;38907;45.562;8.856;2022-11-20T11:52:28;11.90;99.90
51021;DHT22;38907;45.562;8.856;2022-11-20T11:57:33;12.00;99.90
51021;DHT22;38907;45.562;8.856;2022-11-20T12:02:49;12.00;99.90
51021;DHT22;38907;45.562;8.856;2022-11-20T12:07:57;12.10;99.90
51021;DHT22;38907;45.562;8.856;2022-11-20T12:13:04;12.20;99.90
51021;DHT22;38907;45.562;8.856;2022-11-20T12:18:16;12.10;99.90
51021;DHT22;38907;45.562;8.856;2022-11-20T12:23:25;12.30;99.90
51021;DHT22;38907;45.562;8.856;2022-11-20T12:28:42;12.30;99.90
51021;DHT22;38907;45.562;8.856;2022-11-20T12:34:02;12.30;99.90
51021;DHT22;38907;45.562;8.856;2022-11-20T12:39:22;12.40;99.90
51021;DHT22;38907;45.562;8.856;2022-11-20T12:44:42;12.40;99.90
51021;DHT22;38907;45.562;8.856;2022-11-20T12:50:11;12.40;99.90
51021;DHT22;38907;45.562;8.856;2022-11-20T12:55:23;12.50;99.90
51021;DHT22;38907;45.562;8.856;2022-11-20T13:00:27;12.60;99.90
51021;DHT22;38907;45.562;8.856;2022-11-20T13:05:43;12.70;99.90
51021;DHT22;38907;45.562;8.856;2022-11-20T13:10:50;12.80;99.90
51021;DHT22;38907;45.562;8.856;2022-11-20T13:15:57;12.90;99.90
51021;DHT22;38907;45.562;8.856;2022-11-20T13:21:14;12.90;99.90
51021;DHT22;38907;45.562;8.856;2022-11-20T13:26:22;13.00;99.90
51021;DHT22;38907;45.562;8.856;2022-11-20T13:31:32;13.10;99.90
51021;DHT22;38907;45.562;8.856;2022-11-20T13:36:37;13.00;99.90
51021;DHT22;38907;45.562;8.856;2022-11-20T13:41:54;13.10;99.90
51021;DHT22;38907;45.562;8.856;2022-11-20T13:46:57;13.10;99.60
51021;DHT22;38907;45.562;8.856;2022-11-20T13:52:18;13.10;99.90
51021;DHT22;38907;45.562;8.856;2022-11-20T13:57:45;13.00;99.90
51021;DHT22;38907;45.562;8.856;2022-11-20T14:03:06;12.90;99.90
51021;DHT22;38907;45.562;8.856;2022-11-20T14:08:24;12.90;99.90
51021;DHT22;38907;45.562;8.856;2022-11-20T14:13:27;12.80;99.90
51021;DHT22;38907;45.562;8.856;2022-11-20T14:18:29;12.80;99.90
51021;DHT22;38907;45.562;8.856;2022-11-20T14:23:33;12.80;99.90
51021;DHT22;38907;45.562;8.856;2022-11-20T14:28:34;12.70;99.10
51021;DHT22;38907;45.562;8.856;2022-11-20T14:33:39;12.70;99.70
51021;DHT22;38907;45.562;8.856;2022-11-20T14:38:42;12.60;99.90
51021;DHT22;38907;45.562;8.856;2022-11-20T14:43:46;12.50;99.90
51021;DHT22;38907;45.562;8.856;2022-11-20T14:48:51;12.40;99.90
51021;DHT22;38907;45.562;8.856;2022-11-20T14:53:55;12.30;99.90
51021;DHT22;38907;45.562;8.856;2022-11-20T14:58:58;12.30;99.90
51021;DHT22;38907;45.562;8.856;2022-11-20T15:04:06;12.20;99.90
51021;DHT22;38907;45.562;8.856;2022-11-20T15:09:15;12.00;99.90
51021;DHT22;38907;45.562;8.856;2022-11-20T15:14:20;12.00;99.90
51021;DHT22;38907;45.562;8.856;2022-11-20T15:19:24;11.90;99.90
51021;DHT22;38907;45.562;8.856;2022-11-20T15:24:28;11.80;99.90
51021;DHT22;38907;45.562;8.856;2022-11-20T15:29:30;11.70;99.90
51021;DHT22;38907;45.562;8.856;2022-11-20T15:34:33;11.60;99.90
51021;DHT22;38907;45.562;8.856;2022-11-20T15:39:36;11.60;99.90
51021;DHT22;38907;45.562;8.856;2022-11-20T15:44:38;11.50;99.90
51021;DHT22;38907;45.562;8.856;2022-11-20T15:49:42;11.30;99.90
51021;DHT22;38907;45.562;8.856;2022-11-20T15:54:49;11.10;99.90
51021;DHT22;38907;45.562;8.856;2022-11-20T15:59:54;11.00;99.90
51021;DHT22;38907;45.562;8.856;2022-11-20T16:04:57;10.90;99.90
51021;DHT22;38907;45.562;8.856;2022-11-20T16:10:01;10.70;99.90
51021;DHT22;38907;45.562;8.856;2022-11-20T16:15:04;10.60;99.90
51021;DHT22;38907;45.562;8.856;2022-11-20T16:20:24;10.40;99.90
51021;DHT22;38907;45.562;8.856;2022-11-20T16:25:28;10.30;99.90
51021;DHT22;38907;45.562;8.856;2022-11-20T16:30:30;10.20;99.90
51021;DHT22;38907;45.562;8.856;2022-11-20T16:35:33;10.20;99.90
51021;DHT22;38907;45.562;8.856;2022-11-20T16:40:36;9.90;99.90
51021;DHT22;38907;45.562;8.856;2022-11-20T16:45:42;9.90;99.90
51021;DHT22;38907;45.562;8.856;2022-11-20T16:50:46;9.80;99.90
51021;DHT22;38907;45.562;8.856;2022-11-20T16:55:50;9.80;99.90
51021;DHT22;38907;45.562;8.856;2022-11-20T17:00:52;9.80;99.90
51021;DHT22;38907;45.562;8.856;2022-11-20T17:05:54;9.90;99.90
51021;DHT22;38907;45.562;8.856;2022-11-20T17:11:04;9.70;99.90
51021;DHT22;38907;45.562;8.856;2022-11-20T17:16:07;9.60;99.90
51021;DHT22;38907;45.562;8.856;2022-11-20T17:21:10;9.50;99.90
51021;DHT22;38907;45.562;8.856;2022-11-20T17:26:15;9.50;99.90
51021;DHT22;38907;45.562;8.856;2022-11-20T17:31:17;9.40;99.90
51021;DHT22;38907;45.562;8.856;2022-11-20T17:36:19;9.30;99.90
51021;DHT22;38907;45.562;8.856;2022-11-20T17:41:24;9.30;99.90
51021;DHT22;38907;45.562;8.856;2022-11-20T17:46:28;9.30;99.90
51021;DHT22;38907;45.562;8.856;2022-11-20T17:51:33;9.20;99.90
51021;DHT22;38907;45.562;8.856;2022-11-20T17:56:36;9.10;99.90
51021;DHT22;38907;45.562;8.856;2022-11-20T18:01:56;9.00;99.90
51021;DHT22;38907;45.562;8.856;2022-11-20T18:06:57;9.10;99.90
51021;DHT22;38907;45.562;8.856;2022-11-20T18:12:01;9.00;99.90
51021;DHT22;38907;45.562;8.856;2022-11-20T18:17:04;9.00;99.90
51021;DHT22;38907;45.562;8.856;2022-11-20T18:22:06;8.80;99.90
51021;DHT22;38907;45.562;8.856;2022-11-20T18:27:13;8.70;99.90
51021;DHT22;38907;45.562;8.856;2022-11-20T18:32:15;8.70;99.90
51021;DHT22;38907;45.562;8.856;2022-11-20T18:37:17;8.60;99.90
51021;DHT22;38907;45.562;8.856;2022-11-20T18:42:21;8.70;99.90
51021;DHT22;38907;45.562;8.856;2022-11-20T18:47:40;8.60;99.90
51021;DHT22;38907;45.562;8.856;2022-11-20T18:52:44;8.40;99.90
51021;DHT22;38907;45.562;8.856;2022-11-20T18:57:48;8.30;99.90
51021;DHT22;38907;45.562;8.856;2022-11-20T19:02:52;8.40;99.90
51021;DHT22;38907;45.562;8.856;2022-11-20T19:07:54;8.30;99.90
51021;DHT22;38907;45.562;8.856;2022-11-20T19:12:58;8.20;99.90
51021;DHT22;38907;45.562;8.856;2022-11-20T19:18:00;8.10;99.90
51021;DHT22;38907;45.562;8.856;2022-11-20T19:23:02;8.20;99.90
51021;DHT22;38907;45.562;8.856;2022-11-20T19:28:05;8.30;99.90
51021;DHT22;38907;45.562;8.856;2022-11-20T19:33:07;8.10;99.90
51021;DHT22;38907;45.562;8.856;2022-11-20T19:38:10;8.10;99.90
51021;DHT22;38907;45.562;8.856;2022-11-20T19:43:16;8.00;99.90
51021;DHT22;38907;45.562;8.856;2022-11-20T19:48:20;7.90;99.90
51021;DHT22;38907;45.562;8.856;2022-11-20T19:53:23;7.80;99.90
51021;DHT22;38907;45.562;8.856;2022-11-20T19:58:28;7.90;99.90
51021;DHT22;38907;45.562;8.856;2022-11-20T20:03:31;7.90;99.90
51021;DHT22;38907;45.562;8.856;2022-11-20T20:08:34;7.80;99.90
51021;DHT22;38907;45.562;8.856;2022-11-20T20:13:39;7.70;99.90
51021;DHT22;38907;45.562;8.856;2022-11-20T20:18:42;7.80;99.90
51021;DHT22;38907;45.562;8.856;2022-11-20T20:23:50;7.40;99.90
51021;DHT22;38907;45.562;8.856;2022-11-20T20:28:54;7.30;99.90
51021;DHT22;38907;45.562;8.856;2022-11-20T20:33:57;7.20;99.90
51021;DHT22;38907;45.562;8.856;2022-11-20T20:39:00;7.20;99.90
51021;DHT22;38907;45.562;8.856;2022-11-20T20:44:08;7.30;99.90
51021;DHT22;38907;45.562;8.856;2022-11-20T20:49:29;7.30;99.90
51021;DHT22;38907;45.562;8.856;2022-11-20T20:54:34;7.40;99.90
51021;DHT22;38907;45.562;8.856;2022-11-20T20:59:38;7.40;99.90
51021;DHT22;38907;45.562;8.856;2022-11-20T21:04:40;7.10;99.90
51021;DHT22;38907;45.562;8.856;2022-11-20T21:09:41;7.00;99.90
51021;DHT22;38907;45.562;8.856;2022-11-20T21:14:45;7.20;99.90
51021;DHT22;38907;45.562;8.856;2022-11-20T21:19:48;7.10;99.90
51021;DHT22;38907;45.562;8.856;2022-11-20T21:24:49;7.10;99.90
51021;DHT22;38907;45.562;8.856;2022-11-20T21:29:53;7.20;99.90
51021;DHT22;38907;45.562;8.856;2022-11-20T21:34:55;7.30;99.90
51021;DHT22;38907;45.562;8.856;2022-11-20T21:39:56;7.30;99.90
51021;DHT22;38907;45.562;8.856;2022-11-20T21:45:00;7.40;99.90
51021;DHT22;38907;45.562;8.856;2022-11-20T21:50:02;7.60;99.90
51021;DHT22;38907;45.562;8.856;2022-11-20T21:55:04;7.60;99.90
51021;DHT22;38907;45.562;8.856;2022-11-20T22:00:09;7.60;99.90
51021;DHT22;38907;45.562;8.856;2022-11-20T22:05:12;7.50;99.90
51021;DHT22;38907;45.562;8.856;2022-11-20T22:10:14;7.40;99.90
51021;DHT22;38907;45.562;8.856;2022-11-20T22:15:17;7.40;99.90
51021;DHT22;38907;45.562;8.856;2022-11-20T22:20:19;7.60;99.90
51021;DHT22;38907;45.562;8.856;2022-11-20T22:25:21;7.50;99.90
51021;DHT22;38907;45.562;8.856;2022-11-20T22:30:25;7.60;99.90
51021;DHT22;38907;45.562;8.856;2022-11-20T22:35:28;7.50;99.90
51021;DHT22;38907;45.562;8.856;2022-11-20T22:40:31;7.50;99.90
51021;DHT22;38907;45.562;8.856;2022-11-20T22:45:34;7.30;99.90
51021;DHT22;38907;45.562;8.856;2022-11-20T22:50:36;7.00;99.90
51021;DHT22;38907;45.562;8.856;2022-11-20T22:55:38;6.90;99.90
51021;DHT22;38907;45.562;8.856;2022-11-20T23:00:41;6.80;99.90
51021;DHT22;38907;45.562;8.856;2022-11-20T23:05:43;6.70;99.90
51021;DHT22;38907;45.562;8.856;2022-11-20T23:10:45;6.70;99.90
51021;DHT22;38907;45.562;8.856;2022-11-20T23:15:48;6.70;99.90
51021;DHT22;38907;45.562;8.856;2022-11-20T23:20:50;6.80;99.90
51021;DHT22;38907;45.562;8.856;2022-11-20T23:25:52;6.80;99.90
51021;DHT22;38907;45.562;8.856;2022-11-20T23:30:55;6.80;99.90
51021;DHT22;38907;45.562;8.856;2022-11-20T23:35:57;6.60;99.90
51021;DHT22;38907;45.562;8.856;2022-11-20T23:40:59;6.70;99.90
51021;DHT22;38907;45.562;8.856;2022-11-20T23:46:03;6.60;99.90
51021;DHT22;38907;45.562;8.856;2022-11-20T23:51:05;6.40;99.90
51021;DHT22;38907;45.562;8.856;2022-11-20T23:56:07;6.70;99.90
